sensor_id;sensor_type;location;lat;lon;timestamp;pressure;altitude;pressure_sealevel;temperature;humidity
32330;BME280;18807;52.434;13.238;2023-07-28T00:00:39;74573.94;;;-142.05;100.00
32330;BME280;18807;52.434;13.238;2023-07-28T00:08:15;74561.72;;;-142.05;100.00
32330;BME280;18807;52.434;13.238;2023-07-28T00:15:50;74561.72;;;-142.05;100.00
32330;BME280;18807;52.434;13.238;2023-07-28T00:23:26;74553.56;;;-142.05;100.00
32330;BME280;18807;52.434;13.238;2023-07-28T00:31:00;74541.31;;;-142.05;100.00
32330;BME280;18807;52.434;13.238;2023-07-28T00:38:36;74535.19;;;-142.05;100.00
32330;BME280;18807;52.434;13.238;2023-07-28T00:46:10;74533.16;;;-142.05;100.00
32330;BME280;18807;52.434;13.238;2023-07-28T00:53:47;74529.06;;;-142.05;100.00
32330;BME280;18807;52.434;13.238;2023-07-28T01:01:22;74518.88;;;-142.05;100.00
32330;BME280;18807;52.434;13.238;2023-07-28T01:09:02;74518.88;;;-142.05;100.00
32330;BME280;18807;52.434;13.238;2023-07-28T01:16:39;74508.66;;;-142.05;100.00
32330;BME280;18807;52.434;13.238;2023-07-28T01:24:19;74502.56;;;-142.05;100.00
32330;BME280;18807;52.434;13.238;2023-07-28T01:31:58;74500.50;;;-142.05;100.00
32330;BME280;18807;52.434;13.238;2023-07-28T01:39:33;74494.38;;;-142.05;100.00
32330;BME280;18807;52.434;13.238;2023-07-28T01:47:09;74490.31;;;-142.05;100.00
32330;BME280;18807;52.434;13.238;2023-07-28T01:54:43;74496.44;;;-142.05;100.00
32330;BME280;18807;52.434;13.238;2023-07-28T02:02:19;74490.31;;;-142.05;100.00
32330;BME280;18807;52.434;13.238;2023-07-28T02:09:53;74490.31;;;-142.05;100.00
32330;BME280;18807;52.434;13.238;2023-07-28T02:17:29;74486.22;;;-142.05;100.00
32330;BME280;18807;52.434;13.238;2023-07-28T02:25:04;74480.13;;;-142.05;100.00
32330;BME280;18807;52.434;13.238;2023-07-28T02:32:40;74476.03;;;-142.05;100.00
32330;BME280;18807;52.434;13.238;2023-07-28T02:40:15;74467.88;;;-142.05;100.00
32330;BME280;18807;52.434;13.238;2023-07-28T02:47:51;74463.78;;;-142.05;100.00
32330;BME280;18807;52.434;13.238;2023-07-28T02:55:25;74461.75;;;-142.05;100.00
32330;BME280;18807;52.434;13.238;2023-07-28T03:03:01;74465.84;;;-142.05;100.00
32330;BME280;18807;52.434;13.238;2023-07-28T03:10:35;74467.88;;;-142.05;100.00
32330;BME280;18807;52.434;13.238;2023-07-28T03:18:11;74474.00;;;-142.05;100.00
32330;BME280;18807;52.434;13.238;2023-07-28T03:25:46;74478.06;;;-142.05;100.00
32330;BME280;18807;52.434;13.238;2023-07-28T03:33:22;74476.03;;;-142.05;100.00
32330;BME280;18807;52.434;13.238;2023-07-28T03:40:57;74486.22;;;-142.05;100.00
32330;BME280;18807;52.434;13.238;2023-07-28T03:48:34;74490.31;;;-142.05;100.00
32330;BME280;18807;52.434;13.238;2023-07-28T03:56:09;74490.31;;;-142.05;100.00
32330;BME280;18807;52.434;13.238;2023-07-28T04:03:45;74490.31;;;-142.05;100.00
32330;BME280;18807;52.434;13.238;2023-07-28T04:11:20;74492.34;;;-142.05;100.00
32330;BME280;18807;52.434;13.238;2023-07-28T04:18:55;74480.13;;;-142.05;100.00
32330;BME280;18807;52.434;13.238;2023-07-28T04:26:30;74471.94;;;-142.05;100.00
32330;BME280;18807;52.434;13.238;2023-07-28T04:34:06;74476.03;;;-142.05;100.00
32330;BME280;18807;52.434;13.238;2023-07-28T04:41:40;74474.00;;;-142.05;100.00
32330;BME280;18807;52.434;13.238;2023-07-28T04:49:16;74482.16;;;-142.05;100.00
32330;BME280;18807;52.434;13.238;2023-07-28T04:56:54;74476.03;;;-142.05;100.00
32330;BME280;18807;52.434;13.238;2023-07-28T05:04:30;74484.19;;;-142.05;100.00
32330;BME280;18807;52.434;13.238;2023-07-28T05:12:05;74471.94;;;-142.05;100.00
32330;BME280;18807;52.434;13.238;2023-07-28T05:19:41;74476.03;;;-142.05;100.00
32330;BME280;18807;52.434;13.238;2023-07-28T05:27:15;74474.00;;;-142.05;100.00
32330;BME280;18807;52.434;13.238;2023-07-28T05:34:52;74476.03;;;-142.05;100.00
32330;BME280;18807;52.434;13.238;2023-07-28T05:42:28;74478.06;;;-142.05;100.00
32330;BME280;18807;52.434;13.238;2023-07-28T05:50:04;74471.94;;;-142.05;100.00
32330;BME280;18807;52.434;13.238;2023-07-28T05:57:39;74465.84;;;-142.05;100.00
32330;BME280;18807;52.434;13.238;2023-07-28T06:05:15;74474.00;;;-142.05;100.00
32330;BME280;18807;52.434;13.238;2023-07-28T06:12:49;74476.03;;;-142.05;100.00
32330;BME280;18807;52.434;13.238;2023-07-28T06:20:25;74480.13;;;-142.05;100.00
32330;BME280;18807;52.434;13.238;2023-07-28T06:28:00;74486.22;;;-142.05;100.00
32330;BME280;18807;52.434;13.238;2023-07-28T06:35:36;74478.06;;;-142.05;100.00
32330;BME280;18807;52.434;13.238;2023-07-28T06:43:11;74482.16;;;-142.05;100.00
32330;BME280;18807;52.434;13.238;2023-07-28T06:50:47;74478.06;;;-142.05;100.00
32330;BME280;18807;52.434;13.238;2023-07-28T06:58:21;74471.94;;;-142.05;100.00
32330;BME280;18807;52.434;13.238;2023-07-28T07:05:57;74461.75;;;-142.05;100.00
32330;BME280;18807;52.434;13.238;2023-07-28T07:13:31;74465.84;;;-142.05;100.00
32330;BME280;18807;52.434;13.238;2023-07-28T07:21:07;74449.50;;;-142.05;100.00
32330;BME280;18807;52.434;13.238;2023-07-28T07:28:42;74429.13;;;-142.05;100.00
32330;BME280;18807;52.434;13.238;2023-07-28T07:36:19;74429.13;;;-142.05;100.00
32330;BME280;18807;52.434;13.238;2023-07-28T07:43:54;74414.84;;;-142.05;100.00
32330;BME280;18807;52.434;13.238;2023-07-28T07:51:30;74396.47;;;-142.05;100.00
32330;BME280;18807;52.434;13.238;2023-07-28T07:59:06;74388.31;;;-142.05;100.00
32330;BME280;18807;52.434;13.238;2023-07-28T08:06:43;74365.88;;;-142.05;100.00
32330;BME280;18807;52.434;13.238;2023-07-28T08:14:19;74331.19;;;-142.05;100.00
32330;BME280;18807;52.434;13.238;2023-07-28T08:22:04;74327.13;;;-142.05;100.00
32330;BME280;18807;52.434;13.238;2023-07-28T08:30:31;74339.34;;;-142.05;100.00
32330;BME280;18807;52.434;13.238;2023-07-28T08:47:42;74316.91;;;-142.05;100.00
32330;BME280;18807;52.434;13.238;2023-07-28T08:55:37;74310.78;;;-142.05;100.00
32330;BME280;18807;52.434;13.238;2023-07-28T09:03:15;74314.88;;;-142.05;100.00
32330;BME280;18807;52.434;13.238;2023-07-28T09:11:05;74321.00;;;-142.05;100.00
32330;BME280;18807;52.434;13.238;2023-07-28T09:19:04;74339.34;;;-142.05;100.00
32330;BME280;18807;52.434;13.238;2023-07-28T09:26:45;74349.56;;;-142.05;100.00
32330;BME280;18807;52.434;13.238;2023-07-28T09:34:26;74372.00;;;-142.05;100.00
32330;BME280;18807;52.434;13.238;2023-07-28T09:42:03;74378.13;;;-142.05;100.00
32330;BME280;18807;52.434;13.238;2023-07-28T09:49:46;74376.06;;;-142.05;100.00
32330;BME280;18807;52.434;13.238;2023-07-28T09:57:21;74374.03;;;-142.05;100.00
32330;BME280;18807;52.434;13.238;2023-07-28T10:04:58;74318.97;;;-142.05;100.00
32330;BME280;18807;52.434;13.238;2023-07-28T10:12:39;74298.56;;;-142.05;100.00
32330;BME280;18807;52.434;13.238;2023-07-28T10:20:44;74282.25;;;-142.05;100.00
32330;BME280;18807;52.434;13.238;2023-07-28T10:28:29;74284.28;;;-142.05;100.00
32330;BME280;18807;52.434;13.238;2023-07-28T10:36:14;74286.31;;;-142.05;100.00
32330;BME280;18807;52.434;13.238;2023-07-28T10:43:49;74253.69;;;-142.05;100.00
32330;BME280;18807;52.434;13.238;2023-07-28T10:51:25;74212.88;;;-142.05;100.00
32330;BME280;18807;52.434;13.238;2023-07-28T10:59:04;74196.56;;;-142.05;100.00
32330;BME280;18807;52.434;13.238;2023-07-28T11:06:42;74174.13;;;-142.05;100.00
32330;BME280;18807;52.434;13.238;2023-07-28T11:14:17;74143.53;;;-142.05;100.00
32330;BME280;18807;52.434;13.238;2023-07-28T11:21:55;74131.28;;;-142.05;92.06
32330;BME280;18807;52.434;13.238;2023-07-28T11:29:31;74141.50;;;-142.05;85.28
32330;BME280;18807;52.434;13.238;2023-07-28T11:37:07;74161.88;;;-142.05;91.88
32330;BME280;18807;52.434;13.238;2023-07-28T11:44:42;74100.69;;;-142.05;90.87
32330;BME280;18807;52.434;13.238;2023-07-28T11:52:19;74070.09;;;-142.05;87.35
32330;BME280;18807;52.434;13.238;2023-07-28T11:59:55;74131.28;;;-142.05;97.28
32330;BME280;18807;52.434;13.238;2023-07-28T12:07:33;74188.41;;;-142.05;100.00
32330;BME280;18807;52.434;13.238;2023-07-28T12:15:19;74216.97;;;-142.05;100.00
32330;BME280;18807;52.434;13.238;2023-07-28T12:22:58;74206.75;;;-142.05;100.00
32330;BME280;18807;52.434;13.238;2023-07-28T12:30:36;74253.69;;;-142.05;100.00
32330;BME280;18807;52.434;13.238;2023-07-28T12:38:12;74306.72;;;-142.05;100.00
32330;BME280;18807;52.434;13.238;2023-07-28T12:45:49;74314.88;;;-142.05;100.00
32330;BME280;18807;52.434;13.238;2023-07-28T12:53:31;74321.00;;;-142.05;100.00
32330;BME280;18807;52.434;13.238;2023-07-28T13:01:05;74345.47;;;-142.05;100.00
32330;BME280;18807;52.434;13.238;2023-07-28T13:08:43;74359.75;;;-142.05;100.00
32330;BME280;18807;52.434;13.238;2023-07-28T13:16:20;74345.47;;;-142.05;100.00
32330;BME280;18807;52.434;13.238;2023-07-28T13:23:56;74361.78;;;-142.05;100.00
32330;BME280;18807;52.434;13.238;2023-07-28T13:31:30;74363.84;;;-142.05;100.00
32330;BME280;18807;52.434;13.238;2023-07-28T13:39:08;74357.72;;;-142.05;100.00
32330;BME280;18807;52.434;13.238;2023-07-28T13:46:43;74382.19;;;-142.05;100.00
32330;BME280;18807;52.434;13.238;2023-07-28T13:54:19;74402.59;;;-142.05;100.00
32330;BME280;18807;52.434;13.238;2023-07-28T14:01:55;74396.47;;;-142.05;100.00
32330;BME280;18807;52.434;13.238;2023-07-28T14:09:32;74355.69;;;-142.05;100.00
32330;BME280;18807;52.434;13.238;2023-07-28T14:17:06;74310.78;;;-142.05;100.00
32330;BME280;18807;52.434;13.238;2023-07-28T14:24:42;74314.88;;;-142.05;100.00
32330;BME280;18807;52.434;13.238;2023-07-28T14:32:18;74347.50;;;-142.05;100.00
32330;BME280;18807;52.434;13.238;2023-07-28T14:39:54;74323.03;;;-142.05;100.00
32330;BME280;18807;52.434;13.238;2023-07-28T14:47:29;74298.56;;;-142.05;100.00
32330;BME280;18807;52.434;13.238;2023-07-28T14:55:05;74314.88;;;-142.05;100.00
32330;BME280;18807;52.434;13.238;2023-07-28T15:02:40;74325.06;;;-142.05;100.00
32330;BME280;18807;52.434;13.238;2023-07-28T15:10:15;74341.41;;;-142.05;100.00
32330;BME280;18807;52.434;13.238;2023-07-28T15:17:50;74351.59;;;-142.05;100.00
32330;BME280;18807;52.434;13.238;2023-07-28T15:25:26;74355.69;;;-142.05;100.00
32330;BME280;18807;52.434;13.238;2023-07-28T15:33:00;74369.94;;;-142.05;100.00
32330;BME280;18807;52.434;13.238;2023-07-28T15:40:36;74359.75;;;-142.05;100.00
32330;BME280;18807;52.434;13.238;2023-07-28T15:48:10;74367.91;;;-142.05;100.00
32330;BME280;18807;52.434;13.238;2023-07-28T15:55:46;74396.47;;;-142.05;100.00
32330;BME280;18807;52.434;13.238;2023-07-28T16:03:20;74416.88;;;-142.05;100.00
32330;BME280;18807;52.434;13.238;2023-07-28T16:10:56;74431.16;;;-142.05;100.00
32330;BME280;18807;52.434;13.238;2023-07-28T16:18:31;74445.44;;;-142.05;100.00
32330;BME280;18807;52.434;13.238;2023-07-28T16:26:06;74431.16;;;-142.05;100.00
32330;BME280;18807;52.434;13.238;2023-07-28T16:33:42;74429.13;;;-142.05;100.00
32330;BME280;18807;52.434;13.238;2023-07-28T16:41:18;74429.13;;;-142.05;100.00
32330;BME280;18807;52.434;13.238;2023-07-28T16:48:53;74425.03;;;-142.05;100.00
32330;BME280;18807;52.434;13.238;2023-07-28T16:56:29;74425.03;;;-142.05;100.00
32330;BME280;18807;52.434;13.238;2023-07-28T17:04:03;74420.94;;;-142.05;100.00
32330;BME280;18807;52.434;13.238;2023-07-28T17:11:39;74439.31;;;-142.05;100.00
32330;BME280;18807;52.434;13.238;2023-07-28T17:19:13;74439.31;;;-142.05;100.00
32330;BME280;18807;52.434;13.238;2023-07-28T17:26:50;74431.16;;;-142.05;100.00
32330;BME280;18807;52.434;13.238;2023-07-28T17:34:24;74441.34;;;-142.05;100.00
32330;BME280;18807;52.434;13.238;2023-07-28T17:42:04;74439.31;;;-142.05;100.00
32330;BME280;18807;52.434;13.238;2023-07-28T17:49:38;74435.22;;;-142.05;100.00
32330;BME280;18807;52.434;13.238;2023-07-28T17:57:14;74425.03;;;-142.05;100.00
32330;BME280;18807;52.434;13.238;2023-07-28T18:04:49;74435.22;;;-142.05;100.00
32330;BME280;18807;52.434;13.238;2023-07-28T18:12:25;74453.59;;;-142.05;100.00
32330;BME280;18807;52.434;13.238;2023-07-28T18:20:00;74463.78;;;-142.05;100.00
32330;BME280;18807;52.434;13.238;2023-07-28T18:27:37;74480.13;;;-142.05;100.00
32330;BME280;18807;52.434;13.238;2023-07-28T18:35:12;74486.22;;;-142.05;100.00
32330;BME280;18807;52.434;13.238;2023-07-28T18:42:48;74498.47;;;-142.05;100.00
32330;BME280;18807;52.434;13.238;2023-07-28T18:50:22;74512.75;;;-142.05;100.00
32330;BME280;18807;52.434;13.238;2023-07-28T18:57:58;74539.28;;;-142.05;100.00
32330;BME280;18807;52.434;13.238;2023-07-28T19:05:32;74547.44;;;-142.05;100.00
32330;BME280;18807;52.434;13.238;2023-07-28T19:13:07;74565.78;;;-142.05;100.00
32330;BME280;18807;52.434;13.238;2023-07-28T19:20:42;74590.28;;;-142.05;100.00
32330;BME280;18807;52.434;13.238;2023-07-28T19:28:20;74604.56;;;-142.05;100.00
32330;BME280;18807;52.434;13.238;2023-07-28T19:35:55;74616.78;;;-142.05;100.00
32330;BME280;18807;52.434;13.238;2023-07-28T19:43:30;74629.03;;;-142.05;100.00
32330;BME280;18807;52.434;13.238;2023-07-28T19:51:05;74647.41;;;-142.05;100.00
32330;BME280;18807;52.434;13.238;2023-07-28T19:58:41;74669.84;;;-142.05;100.00
32330;BME280;18807;52.434;13.238;2023-07-28T20:06:16;74684.13;;;-142.05;100.00
32330;BME280;18807;52.434;13.238;2023-07-28T20:13:51;74694.31;;;-142.05;100.00
32330;BME280;18807;52.434;13.238;2023-07-28T20:21:26;74716.75;;;-142.05;100.00
32330;BME280;18807;52.434;13.238;2023-07-28T20:29:02;74724.91;;;-142.05;100.00
32330;BME280;18807;52.434;13.238;2023-07-28T20:36:36;74710.63;;;-142.05;100.00
32330;BME280;18807;52.434;13.238;2023-07-28T20:44:12;74702.47;;;-142.05;100.00
32330;BME280;18807;52.434;13.238;2023-07-28T20:51:48;74694.31;;;-142.05;100.00
32330;BME280;18807;52.434;13.238;2023-07-28T20:59:24;74698.41;;;-142.05;100.00
32330;BME280;18807;52.434;13.238;2023-07-28T21:06:58;74694.31;;;-142.05;100.00
32330;BME280;18807;52.434;13.238;2023-07-28T21:14:35;74696.34;;;-142.05;100.00
32330;BME280;18807;52.434;13.238;2023-07-28T21:22:09;74692.28;;;-142.05;100.00
32330;BME280;18807;52.434;13.238;2023-07-28T21:29:45;74694.31;;;-142.05;100.00
32330;BME280;18807;52.434;13.238;2023-07-28T21:37:20;74708.59;;;-142.05;100.00
32330;BME280;18807;52.434;13.238;2023-07-28T21:44:56;74718.78;;;-142.05;100.00
32330;BME280;18807;52.434;13.238;2023-07-28T21:52:31;74714.72;;;-142.05;100.00
32330;BME280;18807;52.434;13.238;2023-07-28T22:00:09;74722.88;;;-142.05;100.00
32330;BME280;18807;52.434;13.238;2023-07-28T22:08:09;74731.03;;;-142.05;100.00
32330;BME280;18807;52.434;13.238;2023-07-28T22:15:46;74733.06;;;-142.05;100.00
32330;BME280;18807;52.434;13.238;2023-07-28T22:23:27;74737.16;;;-142.05;100.00
32330;BME280;18807;52.434;13.238;2023-07-28T22:31:03;74745.31;;;-142.05;100.00
32330;BME280;18807;52.434;13.238;2023-07-28T22:38:37;74753.47;;;-142.05;100.00
32330;BME280;18807;52.434;13.238;2023-07-28T22:46:13;74773.88;;;-142.05;100.00
32330;BME280;18807;52.434;13.238;2023-07-28T22:53:48;74788.16;;;-142.05;100.00
32330;BME280;18807;52.434;13.238;2023-07-28T23:01:24;74804.47;;;-142.05;100.00
32330;BME280;18807;52.434;13.238;2023-07-28T23:08:58;74824.88;;;-142.05;100.00
32330;BME280;18807;52.434;13.238;2023-07-28T23:16:35;74824.88;;;-142.05;100.00
32330;BME280;18807;52.434;13.238;2023-07-28T23:24:10;74837.13;;;-142.05;100.00
32330;BME280;18807;52.434;13.238;2023-07-28T23:31:46;74835.09;;;-142.05;100.00
32330;BME280;18807;52.434;13.238;2023-07-28T23:39:21;74847.31;;;-142.05;100.00
32330;BME280;18807;52.434;13.238;2023-07-28T23:46:59;74849.38;;;-142.05;100.00
32330;BME280;18807;52.434;13.238;2023-07-28T23:54:33;74857.53;;;-142.05;100.00
